sensor_id;sensor_type;location;lat;lon;timestamp;temperature;humidity
34646;DHT22;20857;47.808;12.482;2023-04-24T00:02:11;10.10;99.90
34646;DHT22;20857;47.808;12.482;2023-04-24T00:04:38;9.90;99.90
34646;DHT22;20857;47.808;12.482;2023-04-24T00:07:06;9.80;99.90
34646;DHT22;20857;47.808;12.482;2023-04-24T00:09:35;9.70;99.90
34646;DHT22;20857;47.808;12.482;2023-04-24T00:12:00;10.20;99.90
34646;DHT22;20857;47.808;12.482;2023-04-24T00:14:27;9.90;99.90
34646;DHT22;20857;47.808;12.482;2023-04-24T00:16:53;9.90;99.90
34646;DHT22;20857;47.808;12.482;2023-04-24T00:19:18;9.90;99.90
34646;DHT22;20857;47.808;12.482;2023-04-24T00:21:46;9.80;99.90
34646;DHT22;20857;47.808;12.482;2023-04-24T00:24:15;9.90;99.90
34646;DHT22;20857;47.808;12.482;2023-04-24T00:26:41;10.10;99.90
34646;DHT22;20857;47.808;12.482;2023-04-24T00:29:06;10.00;99.90
34646;DHT22;20857;47.808;12.482;2023-04-24T00:31:32;9.80;99.90
34646;DHT22;20857;47.808;12.482;2023-04-24T00:34:00;9.80;99.90
34646;DHT22;20857;47.808;12.482;2023-04-24T00:36:25;9.70;99.90
34646;DHT22;20857;47.808;12.482;2023-04-24T00:38:52;10.30;99.90
34646;DHT22;20857;47.808;12.482;2023-04-24T00:41:18;9.70;99.90
34646;DHT22;20857;47.808;12.482;2023-04-24T00:43:44;9.70;99.90
34646;DHT22;20857;47.808;12.482;2023-04-24T00:46:10;9.90;99.90
34646;DHT22;20857;47.808;12.482;2023-04-24T00:48:37;9.60;99.90
34646;DHT22;20857;47.808;12.482;2023-04-24T00:51:02;9.70;99.90
34646;DHT22;20857;47.808;12.482;2023-04-24T00:53:28;9.70;99.90
34646;DHT22;20857;47.808;12.482;2023-04-24T00:55:53;9.70;99.90
34646;DHT22;20857;47.808;12.482;2023-04-24T00:58:19;9.70;99.90
34646;DHT22;20857;47.808;12.482;2023-04-24T01:00:44;10.50;99.90
34646;DHT22;20857;47.808;12.482;2023-04-24T01:03:11;9.60;99.90
34646;DHT22;20857;47.808;12.482;2023-04-24T01:05:38;9.60;99.90
34646;DHT22;20857;47.808;12.482;2023-04-24T01:08:03;9.60;99.90
34646;DHT22;20857;47.808;12.482;2023-04-24T01:10:29;9.40;99.90
34646;DHT22;20857;47.808;12.482;2023-04-24T01:12:56;9.50;99.90
34646;DHT22;20857;47.808;12.482;2023-04-24T01:15:22;9.50;99.90
34646;DHT22;20857;47.808;12.482;2023-04-24T01:17:48;9.60;99.90
34646;DHT22;20857;47.808;12.482;2023-04-24T01:20:13;9.60;99.90
34646;DHT22;20857;47.808;12.482;2023-04-24T01:22:39;9.60;99.90
34646;DHT22;20857;47.808;12.482;2023-04-24T01:25:06;9.60;99.90
34646;DHT22;20857;47.808;12.482;2023-04-24T01:27:31;9.60;99.90
34646;DHT22;20857;47.808;12.482;2023-04-24T01:29:57;10.20;99.90
34646;DHT22;20857;47.808;12.482;2023-04-24T01:32:22;9.60;99.90
34646;DHT22;20857;47.808;12.482;2023-04-24T01:34:49;9.60;99.90
34646;DHT22;20857;47.808;12.482;2023-04-24T01:37:14;9.70;99.90
34646;DHT22;20857;47.808;12.482;2023-04-24T01:39:40;9.60;99.90
34646;DHT22;20857;47.808;12.482;2023-04-24T01:42:06;9.60;99.90
34646;DHT22;20857;47.808;12.482;2023-04-24T01:44:33;9.70;99.90
34646;DHT22;20857;47.808;12.482;2023-04-24T01:47:00;9.60;99.90
34646;DHT22;20857;47.808;12.482;2023-04-24T01:49:25;9.60;99.90
34646;DHT22;20857;47.808;12.482;2023-04-24T01:51:51;9.50;99.90
34646;DHT22;20857;47.808;12.482;2023-04-24T01:54:16;9.50;99.90
34646;DHT22;20857;47.808;12.482;2023-04-24T01:56:42;9.70;99.90
34646;DHT22;20857;47.808;12.482;2023-04-24T01:59:11;10.50;99.90
34646;DHT22;20857;47.808;12.482;2023-04-24T02:01:37;9.60;99.90
34646;DHT22;20857;47.808;12.482;2023-04-24T02:04:06;9.60;99.90
34646;DHT22;20857;47.808;12.482;2023-04-24T02:06:32;9.50;99.90
34646;DHT22;20857;47.808;12.482;2023-04-24T02:08:58;9.40;99.90
34646;DHT22;20857;47.808;12.482;2023-04-24T02:11:24;9.40;99.90
34646;DHT22;20857;47.808;12.482;2023-04-24T02:13:49;9.30;99.90
34646;DHT22;20857;47.808;12.482;2023-04-24T02:16:15;9.80;99.90
34646;DHT22;20857;47.808;12.482;2023-04-24T02:18:41;9.40;99.90
34646;DHT22;20857;47.808;12.482;2023-04-24T02:21:06;9.30;99.90
34646;DHT22;20857;47.808;12.482;2023-04-24T02:23:32;9.30;99.90
34646;DHT22;20857;47.808;12.482;2023-04-24T02:25:57;9.30;99.90
34646;DHT22;20857;47.808;12.482;2023-04-24T02:28:23;9.20;99.90
34646;DHT22;20857;47.808;12.482;2023-04-24T02:30:48;9.80;99.90
34646;DHT22;20857;47.808;12.482;2023-04-24T02:33:13;9.30;99.90
34646;DHT22;20857;47.808;12.482;2023-04-24T02:35:39;9.30;99.90
34646;DHT22;20857;47.808;12.482;2023-04-24T02:38:04;9.20;99.90
34646;DHT22;20857;47.808;12.482;2023-04-24T02:40:30;9.20;99.90
34646;DHT22;20857;47.808;12.482;2023-04-24T02:42:55;9.40;99.90
34646;DHT22;20857;47.808;12.482;2023-04-24T02:45:21;9.30;99.90
34646;DHT22;20857;47.808;12.482;2023-04-24T02:47:46;9.40;99.90
34646;DHT22;20857;47.808;12.482;2023-04-24T02:50:12;9.30;99.90
34646;DHT22;20857;47.808;12.482;2023-04-24T02:52:37;9.20;99.90
34646;DHT22;20857;47.808;12.482;2023-04-24T02:55:03;9.60;99.90
34646;DHT22;20857;47.808;12.482;2023-04-24T02:57:28;9.20;99.90
34646;DHT22;20857;47.808;12.482;2023-04-24T03:02:57;9.20;99.90
34646;DHT22;20857;47.808;12.482;2023-04-24T03:05:22;9.20;99.90
34646;DHT22;20857;47.808;12.482;2023-04-24T03:07:48;9.20;99.90
34646;DHT22;20857;47.808;12.482;2023-04-24T03:10:13;9.20;99.90
34646;DHT22;20857;47.808;12.482;2023-04-24T03:12:39;9.20;99.90
34646;DHT22;20857;47.808;12.482;2023-04-24T03:15:05;9.30;99.90
34646;DHT22;20857;47.808;12.482;2023-04-24T03:17:30;9.20;99.90
34646;DHT22;20857;47.808;12.482;2023-04-24T03:19:56;9.30;99.90
34646;DHT22;20857;47.808;12.482;2023-04-24T03:22:21;9.20;99.90
34646;DHT22;20857;47.808;12.482;2023-04-24T03:24:47;9.20;99.90
34646;DHT22;20857;47.808;12.482;2023-04-24T03:27:12;9.30;99.90
34646;DHT22;20857;47.808;12.482;2023-04-24T03:29:38;9.30;99.90
34646;DHT22;20857;47.808;12.482;2023-04-24T03:32:03;9.30;99.90
34646;DHT22;20857;47.808;12.482;2023-04-24T03:34:29;9.30;99.90
34646;DHT22;20857;47.808;12.482;2023-04-24T03:36:54;9.90;99.90
34646;DHT22;20857;47.808;12.482;2023-04-24T03:39:20;9.10;99.90
34646;DHT22;20857;47.808;12.482;2023-04-24T03:41:45;9.10;99.90
34646;DHT22;20857;47.808;12.482;2023-04-24T03:44:11;9.00;99.90
34646;DHT22;20857;47.808;12.482;2023-04-24T03:46:36;9.20;99.90
34646;DHT22;20857;47.808;12.482;2023-04-24T03:49:01;9.20;99.90
34646;DHT22;20857;47.808;12.482;2023-04-24T03:51:27;9.20;99.90
34646;DHT22;20857;47.808;12.482;2023-04-24T03:53:53;9.20;99.90
34646;DHT22;20857;47.808;12.482;2023-04-24T03:56:18;9.20;99.90
34646;DHT22;20857;47.808;12.482;2023-04-24T03:58:45;9.20;99.90
34646;DHT22;20857;47.808;12.482;2023-04-24T04:01:10;9.30;99.90
34646;DHT22;20857;47.808;12.482;2023-04-24T04:03:36;9.20;99.90
34646;DHT22;20857;47.808;12.482;2023-04-24T04:06:02;9.20;99.90
34646;DHT22;20857;47.808;12.482;2023-04-24T04:08:27;9.20;99.90
34646;DHT22;20857;47.808;12.482;2023-04-24T04:10:53;9.20;99.90
34646;DHT22;20857;47.808;12.482;2023-04-24T04:13:18;9.20;99.90
34646;DHT22;20857;47.808;12.482;2023-04-24T04:15:44;9.20;99.90
34646;DHT22;20857;47.808;12.482;2023-04-24T04:18:09;9.10;99.90
34646;DHT22;20857;47.808;12.482;2023-04-24T04:20:35;9.10;99.90
34646;DHT22;20857;47.808;12.482;2023-04-24T04:23:00;9.00;99.90
34646;DHT22;20857;47.808;12.482;2023-04-24T04:25:26;8.90;99.90
34646;DHT22;20857;47.808;12.482;2023-04-24T04:27:51;9.00;99.90
34646;DHT22;20857;47.808;12.482;2023-04-24T04:30:17;9.30;99.90
34646;DHT22;20857;47.808;12.482;2023-04-24T04:32:43;10.00;99.90
34646;DHT22;20857;47.808;12.482;2023-04-24T04:35:09;8.90;99.90
34646;DHT22;20857;47.808;12.482;2023-04-24T04:37:34;8.90;99.90
34646;DHT22;20857;47.808;12.482;2023-04-24T04:40:00;9.30;99.90
34646;DHT22;20857;47.808;12.482;2023-04-24T04:42:25;10.30;99.90
34646;DHT22;20857;47.808;12.482;2023-04-24T04:44:52;9.80;99.90
34646;DHT22;20857;47.808;12.482;2023-04-24T04:47:18;9.00;99.90
34646;DHT22;20857;47.808;12.482;2023-04-24T04:49:45;9.00;99.90
34646;DHT22;20857;47.808;12.482;2023-04-24T04:52:10;9.00;99.90
34646;DHT22;20857;47.808;12.482;2023-04-24T04:54:36;9.00;99.90
34646;DHT22;20857;47.808;12.482;2023-04-24T04:57:01;9.00;99.90
34646;DHT22;20857;47.808;12.482;2023-04-24T04:59:27;8.90;99.90
34646;DHT22;20857;47.808;12.482;2023-04-24T05:01:52;9.00;99.90
34646;DHT22;20857;47.808;12.482;2023-04-24T05:04:18;9.00;99.90
34646;DHT22;20857;47.808;12.482;2023-04-24T05:06:43;8.90;99.90
34646;DHT22;20857;47.808;12.482;2023-04-24T05:09:09;10.70;99.90
34646;DHT22;20857;47.808;12.482;2023-04-24T05:11:34;8.90;99.90
34646;DHT22;20857;47.808;12.482;2023-04-24T05:14:00;10.10;99.90
34646;DHT22;20857;47.808;12.482;2023-04-24T05:16:26;9.00;99.90
34646;DHT22;20857;47.808;12.482;2023-04-24T05:18:51;9.00;99.90
34646;DHT22;20857;47.808;12.482;2023-04-24T05:21:17;9.00;99.90
34646;DHT22;20857;47.808;12.482;2023-04-24T05:23:43;9.10;99.90
34646;DHT22;20857;47.808;12.482;2023-04-24T05:26:08;9.10;99.90
34646;DHT22;20857;47.808;12.482;2023-04-24T05:28:34;9.00;99.90
34646;DHT22;20857;47.808;12.482;2023-04-24T05:31:02;9.10;99.90
34646;DHT22;20857;47.808;12.482;2023-04-24T05:33:27;9.10;99.90
34646;DHT22;20857;47.808;12.482;2023-04-24T05:35:53;9.10;99.90
34646;DHT22;20857;47.808;12.482;2023-04-24T05:38:18;9.50;99.90
34646;DHT22;20857;47.808;12.482;2023-04-24T05:40:47;9.40;99.90
34646;DHT22;20857;47.808;12.482;2023-04-24T05:43:13;9.20;99.90
34646;DHT22;20857;47.808;12.482;2023-04-24T05:45:38;9.20;99.90
34646;DHT22;20857;47.808;12.482;2023-04-24T05:48:04;9.10;99.90
34646;DHT22;20857;47.808;12.482;2023-04-24T05:50:31;9.10;99.90
34646;DHT22;20857;47.808;12.482;2023-04-24T05:52:56;9.10;99.90
34646;DHT22;20857;47.808;12.482;2023-04-24T05:55:25;9.10;99.90
34646;DHT22;20857;47.808;12.482;2023-04-24T05:57:51;9.10;99.90
34646;DHT22;20857;47.808;12.482;2023-04-24T06:00:16;9.00;99.90
34646;DHT22;20857;47.808;12.482;2023-04-24T06:02:44;9.10;99.90
34646;DHT22;20857;47.808;12.482;2023-04-24T06:05:10;9.10;99.90
34646;DHT22;20857;47.808;12.482;2023-04-24T06:07:36;11.20;99.90
34646;DHT22;20857;47.808;12.482;2023-04-24T06:10:01;9.20;99.90
34646;DHT22;20857;47.808;12.482;2023-04-24T06:12:27;9.20;99.90
34646;DHT22;20857;47.808;12.482;2023-04-24T06:14:53;9.30;99.90
34646;DHT22;20857;47.808;12.482;2023-04-24T06:17:19;9.40;99.90
34646;DHT22;20857;47.808;12.482;2023-04-24T06:19:44;9.30;99.90
34646;DHT22;20857;47.808;12.482;2023-04-24T06:22:10;9.40;99.90
34646;DHT22;20857;47.808;12.482;2023-04-24T06:24:35;9.40;99.90
34646;DHT22;20857;47.808;12.482;2023-04-24T06:27:01;9.40;99.90
34646;DHT22;20857;47.808;12.482;2023-04-24T06:29:27;9.50;99.90
34646;DHT22;20857;47.808;12.482;2023-04-24T06:31:52;9.50;99.90
34646;DHT22;20857;47.808;12.482;2023-04-24T06:34:18;11.20;99.90
34646;DHT22;20857;47.808;12.482;2023-04-24T06:36:43;9.60;99.90
34646;DHT22;20857;47.808;12.482;2023-04-24T06:39:09;11.50;99.90
34646;DHT22;20857;47.808;12.482;2023-04-24T06:41:35;9.70;99.90
34646;DHT22;20857;47.808;12.482;2023-04-24T06:44:00;11.00;99.90
34646;DHT22;20857;47.808;12.482;2023-04-24T06:46:26;9.90;99.90
34646;DHT22;20857;47.808;12.482;2023-04-24T06:48:55;9.90;99.90
34646;DHT22;20857;47.808;12.482;2023-04-24T06:51:25;10.10;99.90
34646;DHT22;20857;47.808;12.482;2023-04-24T06:53:51;10.30;99.90
34646;DHT22;20857;47.808;12.482;2023-04-24T06:56:17;10.40;99.90
34646;DHT22;20857;47.808;12.482;2023-04-24T06:58:42;10.50;99.90
34646;DHT22;20857;47.808;12.482;2023-04-24T07:01:07;10.60;99.90
34646;DHT22;20857;47.808;12.482;2023-04-24T07:03:33;10.60;99.90
34646;DHT22;20857;47.808;12.482;2023-04-24T07:05:58;10.70;99.90
34646;DHT22;20857;47.808;12.482;2023-04-24T07:08:24;10.80;99.90
34646;DHT22;20857;47.808;12.482;2023-04-24T07:10:50;11.10;99.90
34646;DHT22;20857;47.808;12.482;2023-04-24T07:13:16;11.10;99.90
34646;DHT22;20857;47.808;12.482;2023-04-24T07:15:42;11.40;99.90
34646;DHT22;20857;47.808;12.482;2023-04-24T07:18:08;11.40;99.90
34646;DHT22;20857;47.808;12.482;2023-04-24T07:20:33;11.50;99.90
34646;DHT22;20857;47.808;12.482;2023-04-24T07:22:59;11.70;99.90
34646;DHT22;20857;47.808;12.482;2023-04-24T07:25:25;11.90;99.90
34646;DHT22;20857;47.808;12.482;2023-04-24T07:27:50;11.80;99.90
34646;DHT22;20857;47.808;12.482;2023-04-24T07:30:16;12.00;99.90
34646;DHT22;20857;47.808;12.482;2023-04-24T07:32:41;12.00;99.90
34646;DHT22;20857;47.808;12.482;2023-04-24T07:35:07;12.00;99.90
34646;DHT22;20857;47.808;12.482;2023-04-24T07:37:34;12.20;99.90
34646;DHT22;20857;47.808;12.482;2023-04-24T07:40:00;12.00;99.90
34646;DHT22;20857;47.808;12.482;2023-04-24T07:42:25;11.90;99.90
34646;DHT22;20857;47.808;12.482;2023-04-24T07:44:51;11.80;99.90
34646;DHT22;20857;47.808;12.482;2023-04-24T07:47:16;11.90;99.90
34646;DHT22;20857;47.808;12.482;2023-04-24T07:49:42;11.70;99.90
34646;DHT22;20857;47.808;12.482;2023-04-24T07:52:08;11.80;99.90
34646;DHT22;20857;47.808;12.482;2023-04-24T07:54:33;11.70;99.90
34646;DHT22;20857;47.808;12.482;2023-04-24T07:56:59;11.60;99.90
34646;DHT22;20857;47.808;12.482;2023-04-24T08:02:28;11.50;99.90
34646;DHT22;20857;47.808;12.482;2023-04-24T08:04:54;11.50;99.90
34646;DHT22;20857;47.808;12.482;2023-04-24T08:07:20;11.60;99.90
34646;DHT22;20857;47.808;12.482;2023-04-24T08:09:45;11.50;99.90
34646;DHT22;20857;47.808;12.482;2023-04-24T08:12:11;11.60;99.90
34646;DHT22;20857;47.808;12.482;2023-04-24T08:14:36;11.50;99.90
34646;DHT22;20857;47.808;12.482;2023-04-24T08:17:02;11.50;99.90
34646;DHT22;20857;47.808;12.482;2023-04-24T08:19:28;11.50;99.90
34646;DHT22;20857;47.808;12.482;2023-04-24T08:21:54;11.50;99.90
34646;DHT22;20857;47.808;12.482;2023-04-24T08:24:19;11.50;99.90
34646;DHT22;20857;47.808;12.482;2023-04-24T08:26:45;11.70;99.90
34646;DHT22;20857;47.808;12.482;2023-04-24T08:29:10;11.80;99.90
34646;DHT22;20857;47.808;12.482;2023-04-24T08:31:36;11.90;99.90
34646;DHT22;20857;47.808;12.482;2023-04-24T08:34:01;12.10;99.90
34646;DHT22;20857;47.808;12.482;2023-04-24T08:36:27;12.30;99.90
34646;DHT22;20857;47.808;12.482;2023-04-24T08:38:52;12.40;99.90
34646;DHT22;20857;47.808;12.482;2023-04-24T08:41:18;12.60;99.90
34646;DHT22;20857;47.808;12.482;2023-04-24T08:43:45;12.50;99.90
34646;DHT22;20857;47.808;12.482;2023-04-24T08:46:11;12.50;99.90
34646;DHT22;20857;47.808;12.482;2023-04-24T08:48:38;12.50;99.90
34646;DHT22;20857;47.808;12.482;2023-04-24T08:51:03;12.60;99.90
34646;DHT22;20857;47.808;12.482;2023-04-24T08:53:32;12.70;99.90
34646;DHT22;20857;47.808;12.482;2023-04-24T08:55:57;12.70;99.90
34646;DHT22;20857;47.808;12.482;2023-04-24T08:58:26;12.80;99.90
34646;DHT22;20857;47.808;12.482;2023-04-24T09:00:54;12.70;99.90
34646;DHT22;20857;47.808;12.482;2023-04-24T09:03:19;12.40;99.90
34646;DHT22;20857;47.808;12.482;2023-04-24T09:05:46;12.40;99.90
34646;DHT22;20857;47.808;12.482;2023-04-24T09:08:13;12.40;99.90
34646;DHT22;20857;47.808;12.482;2023-04-24T09:10:39;12.40;99.90
34646;DHT22;20857;47.808;12.482;2023-04-24T09:13:04;12.30;99.90
34646;DHT22;20857;47.808;12.482;2023-04-24T09:15:31;12.00;99.90
34646;DHT22;20857;47.808;12.482;2023-04-24T09:17:57;11.80;99.90
34646;DHT22;20857;47.808;12.482;2023-04-24T09:20:22;11.60;99.90
34646;DHT22;20857;47.808;12.482;2023-04-24T09:22:48;11.50;99.90
34646;DHT22;20857;47.808;12.482;2023-04-24T09:25:13;11.30;99.90
34646;DHT22;20857;47.808;12.482;2023-04-24T09:27:42;11.20;99.90
34646;DHT22;20857;47.808;12.482;2023-04-24T09:30:09;11.00;99.90
34646;DHT22;20857;47.808;12.482;2023-04-24T09:32:34;11.00;99.90
34646;DHT22;20857;47.808;12.482;2023-04-24T09:35:11;11.00;99.90
34646;DHT22;20857;47.808;12.482;2023-04-24T09:37:44;10.80;99.90
34646;DHT22;20857;47.808;12.482;2023-04-24T09:40:19;10.90;99.90
34646;DHT22;20857;47.808;12.482;2023-04-24T09:42:52;10.90;99.90
34646;DHT22;20857;47.808;12.482;2023-04-24T09:45:18;10.90;99.90
34646;DHT22;20857;47.808;12.482;2023-04-24T09:47:43;11.10;99.90
34646;DHT22;20857;47.808;12.482;2023-04-24T09:50:15;11.50;99.90
34646;DHT22;20857;47.808;12.482;2023-04-24T09:52:45;11.40;99.90
34646;DHT22;20857;47.808;12.482;2023-04-24T09:55:14;11.70;99.90
34646;DHT22;20857;47.808;12.482;2023-04-24T09:57:48;12.10;99.90
34646;DHT22;20857;47.808;12.482;2023-04-24T10:00:16;12.40;99.90
34646;DHT22;20857;47.808;12.482;2023-04-24T10:02:42;12.40;99.90
34646;DHT22;20857;47.808;12.482;2023-04-24T10:05:10;12.40;99.90
34646;DHT22;20857;47.808;12.482;2023-04-24T10:07:37;12.20;99.90
34646;DHT22;20857;47.808;12.482;2023-04-24T10:10:03;12.20;99.90
34646;DHT22;20857;47.808;12.482;2023-04-24T10:12:28;12.20;99.90
34646;DHT22;20857;47.808;12.482;2023-04-24T10:14:55;12.20;99.90
34646;DHT22;20857;47.808;12.482;2023-04-24T10:17:21;12.20;99.90
34646;DHT22;20857;47.808;12.482;2023-04-24T10:19:47;12.10;99.90
34646;DHT22;20857;47.808;12.482;2023-04-24T10:22:13;12.00;99.90
34646;DHT22;20857;47.808;12.482;2023-04-24T10:24:40;11.80;99.90
34646;DHT22;20857;47.808;12.482;2023-04-24T10:27:06;11.90;99.90
34646;DHT22;20857;47.808;12.482;2023-04-24T10:29:33;11.90;99.90
34646;DHT22;20857;47.808;12.482;2023-04-24T10:32:00;11.70;99.90
34646;DHT22;20857;47.808;12.482;2023-04-24T10:34:26;11.80;99.90
34646;DHT22;20857;47.808;12.482;2023-04-24T10:36:52;12.60;99.90
34646;DHT22;20857;47.808;12.482;2023-04-24T10:39:18;12.70;99.90
34646;DHT22;20857;47.808;12.482;2023-04-24T10:41:44;13.10;99.90
34646;DHT22;20857;47.808;12.482;2023-04-24T10:44:12;13.20;99.90
34646;DHT22;20857;47.808;12.482;2023-04-24T10:46:39;13.20;99.90
34646;DHT22;20857;47.808;12.482;2023-04-24T10:49:05;13.50;99.90
34646;DHT22;20857;47.808;12.482;2023-04-24T10:51:49;14.20;99.90
34646;DHT22;20857;47.808;12.482;2023-04-24T10:56:47;14.20;99.90
34646;DHT22;20857;47.808;12.482;2023-04-24T10:59:13;14.40;99.90
34646;DHT22;20857;47.808;12.482;2023-04-24T11:01:52;14.80;99.90
34646;DHT22;20857;47.808;12.482;2023-04-24T11:04:21;15.00;99.90
34646;DHT22;20857;47.808;12.482;2023-04-24T11:06:54;15.00;99.90
34646;DHT22;20857;47.808;12.482;2023-04-24T11:09:19;14.90;99.90
34646;DHT22;20857;47.808;12.482;2023-04-24T11:11:46;14.50;99.90
34646;DHT22;20857;47.808;12.482;2023-04-24T11:14:14;13.90;99.90
34646;DHT22;20857;47.808;12.482;2023-04-24T11:16:53;13.80;99.90
34646;DHT22;20857;47.808;12.482;2023-04-24T11:19:26;14.10;99.90
34646;DHT22;20857;47.808;12.482;2023-04-24T11:24:29;14.90;99.90
34646;DHT22;20857;47.808;12.482;2023-04-24T11:27:05;15.00;99.90
34646;DHT22;20857;47.808;12.482;2023-04-24T11:30:05;14.70;99.90
34646;DHT22;20857;47.808;12.482;2023-04-24T11:34:54;14.70;99.90
34646;DHT22;20857;47.808;12.482;2023-04-24T11:37:21;14.90;99.90
34646;DHT22;20857;47.808;12.482;2023-04-24T11:39:46;14.80;99.90
34646;DHT22;20857;47.808;12.482;2023-04-24T11:42:14;14.80;99.90
34646;DHT22;20857;47.808;12.482;2023-04-24T11:44:41;15.00;99.90
34646;DHT22;20857;47.808;12.482;2023-04-24T11:47:06;15.10;99.90
34646;DHT22;20857;47.808;12.482;2023-04-24T11:49:32;14.90;99.90
34646;DHT22;20857;47.808;12.482;2023-04-24T11:51:57;14.40;99.90
34646;DHT22;20857;47.808;12.482;2023-04-24T11:54:25;14.20;99.90
34646;DHT22;20857;47.808;12.482;2023-04-24T11:56:50;14.20;99.90
34646;DHT22;20857;47.808;12.482;2023-04-24T11:59:16;13.70;99.90
34646;DHT22;20857;47.808;12.482;2023-04-24T12:01:45;13.80;99.90
34646;DHT22;20857;47.808;12.482;2023-04-24T12:04:12;13.80;99.90
34646;DHT22;20857;47.808;12.482;2023-04-24T12:06:38;13.90;99.90
34646;DHT22;20857;47.808;12.482;2023-04-24T12:09:03;13.80;99.90
34646;DHT22;20857;47.808;12.482;2023-04-24T12:11:29;13.90;99.90
34646;DHT22;20857;47.808;12.482;2023-04-24T12:13:55;13.90;99.90
34646;DHT22;20857;47.808;12.482;2023-04-24T12:16:20;13.60;99.90
34646;DHT22;20857;47.808;12.482;2023-04-24T12:18:46;13.70;99.90
34646;DHT22;20857;47.808;12.482;2023-04-24T12:21:18;13.70;99.90
34646;DHT22;20857;47.808;12.482;2023-04-24T12:23:44;13.70;99.90
34646;DHT22;20857;47.808;12.482;2023-04-24T12:26:11;13.70;99.90
34646;DHT22;20857;47.808;12.482;2023-04-24T12:28:37;13.30;99.90
34646;DHT22;20857;47.808;12.482;2023-04-24T12:31:03;13.10;99.90
34646;DHT22;20857;47.808;12.482;2023-04-24T12:33:31;12.70;99.90
34646;DHT22;20857;47.808;12.482;2023-04-24T12:35:57;12.30;99.90
34646;DHT22;20857;47.808;12.482;2023-04-24T12:38:24;10.60;99.90
34646;DHT22;20857;47.808;12.482;2023-04-24T12:41:00;10.30;99.90
34646;DHT22;20857;47.808;12.482;2023-04-24T12:43:26;8.70;99.90
34646;DHT22;20857;47.808;12.482;2023-04-24T12:45:52;8.60;99.90
34646;DHT22;20857;47.808;12.482;2023-04-24T12:48:19;8.70;99.90
34646;DHT22;20857;47.808;12.482;2023-04-24T12:50:46;9.10;99.90
34646;DHT22;20857;47.808;12.482;2023-04-24T12:53:11;9.60;99.90
34646;DHT22;20857;47.808;12.482;2023-04-24T12:55:37;11.00;99.90
34646;DHT22;20857;47.808;12.482;2023-04-24T12:58:03;10.20;99.90
34646;DHT22;20857;47.808;12.482;2023-04-24T13:00:29;10.50;99.90
34646;DHT22;20857;47.808;12.482;2023-04-24T13:02:54;11.50;99.90
34646;DHT22;20857;47.808;12.482;2023-04-24T13:05:20;12.10;99.90
34646;DHT22;20857;47.808;12.482;2023-04-24T13:07:45;12.10;99.90
34646;DHT22;20857;47.808;12.482;2023-04-24T13:10:11;12.60;99.90
34646;DHT22;20857;47.808;12.482;2023-04-24T13:12:38;13.10;99.90
34646;DHT22;20857;47.808;12.482;2023-04-24T13:15:04;13.30;99.90
34646;DHT22;20857;47.808;12.482;2023-04-24T13:17:29;13.60;99.90
34646;DHT22;20857;47.808;12.482;2023-04-24T13:19:55;14.00;99.90
34646;DHT22;20857;47.808;12.482;2023-04-24T13:22:20;14.80;99.90
34646;DHT22;20857;47.808;12.482;2023-04-24T13:24:47;14.90;99.90
34646;DHT22;20857;47.808;12.482;2023-04-24T13:27:15;15.10;99.90
34646;DHT22;20857;47.808;12.482;2023-04-24T13:29:41;15.10;99.90
34646;DHT22;20857;47.808;12.482;2023-04-24T13:32:07;15.40;99.90
34646;DHT22;20857;47.808;12.482;2023-04-24T13:34:33;15.60;99.90
34646;DHT22;20857;47.808;12.482;2023-04-24T13:37:00;15.60;99.90
34646;DHT22;20857;47.808;12.482;2023-04-24T13:39:26;15.40;99.90
34646;DHT22;20857;47.808;12.482;2023-04-24T13:41:52;15.10;99.90
34646;DHT22;20857;47.808;12.482;2023-04-24T13:44:18;13.80;99.90
34646;DHT22;20857;47.808;12.482;2023-04-24T13:46:45;13.40;99.90
34646;DHT22;20857;47.808;12.482;2023-04-24T13:49:11;12.70;99.90
34646;DHT22;20857;47.808;12.482;2023-04-24T13:51:36;11.50;99.90
34646;DHT22;20857;47.808;12.482;2023-04-24T13:54:02;12.10;99.90
34646;DHT22;20857;47.808;12.482;2023-04-24T13:56:27;10.50;99.90
34646;DHT22;20857;47.808;12.482;2023-04-24T13:58:53;10.50;99.90
34646;DHT22;20857;47.808;12.482;2023-04-24T14:01:22;11.20;99.90
34646;DHT22;20857;47.808;12.482;2023-04-24T14:03:53;11.60;99.90
34646;DHT22;20857;47.808;12.482;2023-04-24T14:06:19;11.50;99.90
34646;DHT22;20857;47.808;12.482;2023-04-24T14:08:45;11.00;99.90
34646;DHT22;20857;47.808;12.482;2023-04-24T14:11:11;10.70;99.90
34646;DHT22;20857;47.808;12.482;2023-04-24T14:13:36;10.40;99.90
34646;DHT22;20857;47.808;12.482;2023-04-24T14:16:03;10.10;99.90
34646;DHT22;20857;47.808;12.482;2023-04-24T14:18:28;10.10;99.90
34646;DHT22;20857;47.808;12.482;2023-04-24T14:20:54;10.20;99.90
34646;DHT22;20857;47.808;12.482;2023-04-24T14:23:19;10.40;99.90
34646;DHT22;20857;47.808;12.482;2023-04-24T14:25:45;10.50;99.90
34646;DHT22;20857;47.808;12.482;2023-04-24T14:28:12;10.80;99.90
34646;DHT22;20857;47.808;12.482;2023-04-24T14:30:38;10.90;99.90
34646;DHT22;20857;47.808;12.482;2023-04-24T14:33:05;10.80;99.90
34646;DHT22;20857;47.808;12.482;2023-04-24T14:35:31;10.80;99.90
34646;DHT22;20857;47.808;12.482;2023-04-24T14:37:59;10.90;99.90
34646;DHT22;20857;47.808;12.482;2023-04-24T14:40:25;11.00;99.90
34646;DHT22;20857;47.808;12.482;2023-04-24T14:42:51;11.00;99.90
34646;DHT22;20857;47.808;12.482;2023-04-24T14:45:18;11.00;99.90
34646;DHT22;20857;47.808;12.482;2023-04-24T14:47:44;11.20;99.90
34646;DHT22;20857;47.808;12.482;2023-04-24T14:50:09;11.30;99.90
34646;DHT22;20857;47.808;12.482;2023-04-24T14:52:35;11.60;99.90
34646;DHT22;20857;47.808;12.482;2023-04-24T14:55:01;11.80;99.90
34646;DHT22;20857;47.808;12.482;2023-04-24T14:57:26;11.90;99.90
34646;DHT22;20857;47.808;12.482;2023-04-24T14:59:52;12.20;99.90
34646;DHT22;20857;47.808;12.482;2023-04-24T15:02:19;12.60;99.90
34646;DHT22;20857;47.808;12.482;2023-04-24T15:04:44;13.00;99.90
34646;DHT22;20857;47.808;12.482;2023-04-24T15:07:10;13.20;99.90
34646;DHT22;20857;47.808;12.482;2023-04-24T15:09:35;13.20;99.90
34646;DHT22;20857;47.808;12.482;2023-04-24T15:12:01;13.10;99.90
34646;DHT22;20857;47.808;12.482;2023-04-24T15:14:26;12.80;99.90
34646;DHT22;20857;47.808;12.482;2023-04-24T15:16:52;12.60;99.90
34646;DHT22;20857;47.808;12.482;2023-04-24T15:19:17;12.50;99.90
34646;DHT22;20857;47.808;12.482;2023-04-24T15:21:43;12.80;99.90
34646;DHT22;20857;47.808;12.482;2023-04-24T15:24:09;13.00;99.90
34646;DHT22;20857;47.808;12.482;2023-04-24T15:26:35;13.30;99.90
34646;DHT22;20857;47.808;12.482;2023-04-24T15:29:01;13.60;99.90
34646;DHT22;20857;47.808;12.482;2023-04-24T15:31:26;13.40;99.90